Time;durP1;ratioP1;P1;durP2;ratioP2;P2;SDS_P1;SDS_P2;PMS_P1;PMS_P2;Temp;Humidity;BMP_temperature;BMP_pressure;BME280_temperature;BME280_humidity;BME280_pressure;Samples;Min_cycle;Max_cycle;Signal;HPM_P1;HPM_P2
2024/01/05 00:01:06;;;;;;;0.20;0.20;;;;;;;9.64;67.83;100820.28;5056595;28;20024;-91
2024/01/05 00:03:31;;;;;;;0.20;0.20;;;;;;;9.77;67.86;100844.69;5090007;28;20399;-91
2024/01/05 00:05:57;;;;;;;0.20;0.20;;;;;;;9.75;67.60;100851.66;5073546;28;20470;-92
2024/01/05 00:08:22;;;;;;;0.20;0.20;;;;;;;9.79;67.46;100848.03;5073482;28;20028;-92
2024/01/05 00:10:48;;;;;;;0.20;0.20;;;;;;;9.82;67.36;100858.22;5090012;28;20469;-93
2024/01/05 00:13:13;;;;;;;0.20;0.20;;;;;;;9.86;66.91;100858.97;5073430;28;20032;-92
2024/01/05 00:15:39;;;;;;;0.20;0.20;;;;;;;9.89;66.84;100864.00;5073379;28;20028;-92
2024/01/05 00:18:06;;;;;;;0.20;0.20;;;;;;;9.77;67.08;100845.53;5073093;28;20077;-92
2024/01/05 00:20:32;;;;;;;0.20;0.20;;;;;;;9.73;67.24;100868.94;5073394;28;20024;-92
2024/01/05 00:22:57;;;;;;;0.10;0.10;;;;;;;9.75;66.93;100873.16;5073400;28;20051;-91
2024/01/05 00:25:23;;;;;;;0.20;0.20;;;;;;;9.74;66.81;100860.31;5055973;28;20020;-92
2024/01/05 00:27:51;;;;;;;0.20;0.20;;;;;;;9.78;66.78;100882.53;5093336;28;20051;-92
2024/01/05 00:30:16;;;;;;;0.20;0.20;;;;;;;9.76;66.91;100884.34;5093667;28;20030;-91
2024/01/05 00:32:42;;;;;;;0.20;0.20;;;;;;;9.73;66.71;100884.44;5093367;28;20103;-92
2024/01/05 00:35:07;;;;;;;0.10;0.10;;;;;;;9.66;67.04;100878.72;5060229;28;20081;-92
2024/01/05 00:37:33;;;;;;;0.20;0.20;;;;;;;9.69;66.93;100875.16;5076830;28;20020;-92
2024/01/05 00:39:59;;;;;;;0.20;0.20;;;;;;;9.60;66.88;100873.78;5076375;28;20535;-92
2024/01/05 00:42:24;;;;;;;0.20;0.20;;;;;;;9.62;66.79;100871.13;5076521;28;20101;-93
2024/01/05 00:44:50;;;;;;;0.10;0.10;;;;;;;9.59;67.13;100873.84;5076515;28;20430;-91
2024/01/05 00:47:16;;;;;;;0.20;0.20;;;;;;;9.54;66.93;100876.63;5093274;28;20499;-93
2024/01/05 00:49:41;;;;;;;0.20;0.20;;;;;;;9.64;66.74;100877.09;5093395;28;20020;-92
2024/01/05 00:52:07;;;;;;;0.10;0.10;;;;;;;9.63;66.48;100883.16;5094535;28;20118;-92
2024/01/05 00:54:33;;;;;;;0.20;0.20;;;;;;;9.59;66.81;100886.78;5059448;28;20024;-91
2024/01/05 00:56:58;;;;;;;0.20;0.20;;;;;;;9.52;67.18;100890.50;5092998;28;20028;-92
2024/01/05 00:59:24;;;;;;;0.20;0.20;;;;;;;9.53;66.99;100893.00;5093093;28;20382;-91
2024/01/05 01:01:50;;;;;;;0.20;0.20;;;;;;;9.53;67.19;100893.00;5076368;28;20524;-92
2024/01/05 01:04:16;;;;;;;0.20;0.20;;;;;;;9.48;66.99;100895.78;5076349;28;20024;-92
2024/01/05 01:06:42;;;;;;;0.20;0.20;;;;;;;9.29;67.21;100887.09;5093181;28;20099;-93
2024/01/05 01:09:07;;;;;;;0.20;0.20;;;;;;;9.14;68.41;100887.69;5059145;28;20070;-93
2024/01/05 01:11:33;;;;;;;0.20;0.20;;;;;;;9.14;68.07;100895.41;5092621;28;20036;-93
2024/01/05 01:13:58;;;;;;;0.20;0.20;;;;;;;9.11;68.26;100896.38;5076033;28;20028;-91
2024/01/05 01:16:24;;;;;;;0.20;0.20;;;;;;;8.97;68.39;100888.34;5075836;28;20024;-92
2024/01/05 01:18:50;;;;;;;0.20;0.20;;;;;;;8.87;69.06;100903.34;5091942;28;20449;-92
2024/01/05 01:21:16;;;;;;;0.20;0.20;;;;;;;8.89;69.13;100911.84;5059523;28;20485;-93
2024/01/05 01:23:41;;;;;;;0.20;0.20;;;;;;;8.79;69.33;100910.50;5075379;28;20280;-91
2024/01/05 01:26:07;;;;;;;0.20;0.20;;;;;;;8.69;69.28;100914.31;5075752;28;20483;-92
2024/01/05 01:28:32;;;;;;;0.20;0.20;;;;;;;8.60;69.61;100907.75;5075775;28;20556;-93
2024/01/05 01:30:58;;;;;;;0.20;0.20;;;;;;;8.46;70.18;100888.53;5075808;28;20497;-92
2024/01/05 01:33:24;;;;;;;0.20;0.20;;;;;;;8.58;69.64;100921.63;5075690;28;20024;-91
2024/01/05 01:35:49;;;;;;;0.20;0.20;;;;;;;8.64;69.85;100916.22;5075832;28;20413;-93
2024/01/05 01:38:15;;;;;;;0.20;0.20;;;;;;;8.66;69.93;100923.94;5075312;28;20028;-91
2024/01/05 01:40:47;;;;;;;0.20;0.20;;;;;;;8.59;69.59;100924.13;5092328;28;20032;-92
2024/01/05 01:43:20;;;;;;;0.20;0.20;;;;;;;8.58;69.87;100930.19;5058739;28;20024;-92
2024/01/05 01:45:45;;;;;;;0.20;0.20;;;;;;;8.43;69.83;100928.16;5092457;28;20052;-92
2024/01/05 01:48:11;;;;;;;0.20;0.20;;;;;;;8.31;70.29;100920.81;5074980;28;20020;-91
2024/01/05 01:50:36;;;;;;;0.20;0.20;;;;;;;8.36;70.14;100936.13;5075318;28;20640;-93
2024/01/05 01:53:02;;;;;;;0.20;0.20;;;;;;;8.34;70.43;100929.31;5058318;28;20496;-92
2024/01/05 01:55:27;;;;;;;0.20;0.20;;;;;;;8.35;70.43;100919.84;5075164;28;20032;-92
2024/01/05 01:57:53;;;;;;;0.20;0.20;;;;;;;8.51;70.03;100935.63;5092036;28;20405;-91
2024/01/05 02:00:19;;;;;;;0.20;0.20;;;;;;;8.52;69.77;100932.97;5058175;28;20097;-93
2024/01/05 02:02:44;;;;;;;0.20;0.20;;;;;;;8.35;69.77;100901.78;5058382;28;20062;-92
2024/01/05 02:05:10;;;;;;;0.20;0.20;;;;;;;8.56;69.32;100934.56;5075312;28;20099;-92
2024/01/05 02:07:36;;;;;;;0.20;0.20;;;;;;;8.46;69.12;100911.75;5057992;28;20444;-93
2024/01/05 02:10:01;;;;;;;0.20;0.20;;;;;;;8.66;69.07;100937.66;5091868;28;20406;-92
2024/01/05 02:12:27;;;;;;;0.17;0.17;;;;;;;8.72;69.07;100944.31;5091615;28;20043;-92
2024/01/05 02:14:52;;;;;;;0.20;0.20;;;;;;;8.73;68.51;100933.94;5074821;28;20107;-91
2024/01/05 02:17:31;;;;;;;0.20;0.20;;;;;;;8.95;68.27;100951.22;5091607;28;20028;-93
2024/01/05 02:19:56;;;;;;;0.20;0.20;;;;;;;8.90;68.09;100944.50;5058085;28;20050;-91
2024/01/05 02:22:22;;;;;;;0.20;0.20;;;;;;;8.96;67.90;100945.19;5091657;28;20052;-92
2024/01/05 02:24:48;;;;;;;0.20;0.20;;;;;;;8.85;67.83;100935.25;5057954;28;20032;-92
2024/01/05 02:27:13;;;;;;;0.20;0.20;;;;;;;8.77;68.14;100937.28;5074697;28;21137;-92
2024/01/05 02:29:39;;;;;;;0.10;0.10;;;;;;;8.76;68.26;100940.75;5091369;28;20039;-92
2024/01/05 02:32:05;;;;;;;0.20;0.20;;;;;;;8.54;68.91;100936.34;5074346;28;20149;-91
2024/01/05 02:34:30;;;;;;;0.20;0.20;;;;;;;8.61;68.71;100952.44;5074007;28;20089;-92
2024/01/05 02:36:56;;;;;;;0.20;0.20;;;;;;;8.61;68.54;100944.72;5074424;28;20043;-92
2024/01/05 02:39:21;;;;;;;0.20;0.20;;;;;;;8.53;68.65;100941.56;5091372;28;20024;-92
2024/01/05 02:41:47;;;;;;;0.20;0.20;;;;;;;8.65;68.79;100953.16;5092261;28;20024;-93
2024/01/05 02:44:12;;;;;;;0.20;0.20;;;;;;;8.62;68.26;100943.81;5090988;28;20024;-93
2024/01/05 02:46:38;;;;;;;0.20;0.20;;;;;;;8.64;68.18;100952.31;5057620;28;20028;-91
2024/01/05 02:49:03;;;;;;;0.20;0.20;;;;;;;8.60;68.16;100951.59;5090450;28;20028;-94
2024/01/05 02:51:29;;;;;;;0.20;0.20;;;;;;;8.43;68.53;100942.78;5074418;28;21003;-92
2024/01/05 02:53:55;;;;;;;0.20;0.20;;;;;;;8.43;69.04;100958.25;5074127;28;20024;-94
2024/01/05 02:56:21;;;;;;;0.20;0.20;;;;;;;8.38;68.83;100955.84;5090919;28;20058;-91
2024/01/05 02:58:47;;;;;;;0.20;0.20;;;;;;;8.52;68.54;100969.06;5091782;28;20065;-92
2024/01/05 03:01:16;;;;;;;0.20;0.20;;;;;;;8.69;68.12;100968.50;5074192;28;20039;-91
2024/01/05 03:03:45;;;;;;;0.10;0.10;;;;;;;8.75;67.66;100960.56;5090788;28;20032;-92
2024/01/05 03:06:11;;;;;;;0.20;0.20;;;;;;;8.66;67.49;100950.56;5091005;28;20035;-93
2024/01/05 03:08:37;;;;;;;0.20;0.20;;;;;;;8.65;67.75;100960.91;5090865;28;20020;-92
2024/01/05 03:11:02;;;;;;;0.20;0.20;;;;;;;8.52;68.20;100952.75;5073823;28;20498;-92
2024/01/05 03:13:28;;;;;;;0.20;0.20;;;;;;;8.48;68.32;100961.50;5073809;28;20031;-93
2024/01/05 03:15:53;;;;;;;0.20;0.20;;;;;;;8.37;68.67;100956.72;5090886;28;20032;-92
2024/01/05 03:18:19;;;;;;;0.20;0.20;;;;;;;8.39;68.55;100962.69;5073492;28;20056;-92
2024/01/05 03:20:44;;;;;;;0.20;0.20;;;;;;;8.31;68.72;100960.31;5090498;28;20032;-92
2024/01/05 03:23:10;;;;;;;0.20;0.20;;;;;;;8.29;69.01;100951.81;5057169;28;20024;-92
2024/01/05 03:25:35;;;;;;;0.20;0.20;;;;;;;8.27;68.77;100958.75;5073873;28;20047;-94
2024/01/05 03:28:01;;;;;;;0.20;0.20;;;;;;;8.21;68.63;100964.09;5073927;28;20414;-94
2024/01/05 03:30:26;;;;;;;0.20;0.20;;;;;;;8.14;69.15;100962.63;5090645;28;20502;-93
2024/01/05 03:32:52;;;;;;;0.20;0.20;;;;;;;8.18;69.10;100974.53;5090326;28;20417;-93
2024/01/05 03:35:18;;;;;;;0.20;0.20;;;;;;;8.07;69.17;100979.19;5073941;28;20492;-92
2024/01/05 03:37:43;;;;;;;0.20;0.20;;;;;;;8.13;69.14;100976.41;5090554;28;20535;-92
2024/01/05 03:40:09;;;;;;;0.20;0.20;;;;;;;7.99;69.25;100978.59;5090057;28;20039;-91
2024/01/05 03:42:34;;;;;;;0.20;0.20;;;;;;;7.76;70.45;100959.56;5090470;28;20591;-93
2024/01/05 03:45:00;;;;;;;0.20;0.20;;;;;;;7.88;69.76;100985.84;5090515;28;20035;-92
2024/01/05 03:47:25;;;;;;;0.20;0.20;;;;;;;7.94;70.42;100986.47;5057935;28;20028;-92
2024/01/05 03:49:51;;;;;;;0.20;0.20;;;;;;;7.99;70.59;100994.06;5073798;28;20035;-91
2024/01/05 03:52:16;;;;;;;0.10;0.10;;;;;;;8.17;70.58;101000.34;5090285;28;20086;-91
2024/01/05 03:54:42;;;;;;;0.20;0.20;;;;;;;8.17;70.25;100988.31;5073489;28;20413;-91
2024/01/05 03:57:08;;;;;;;0.10;0.10;;;;;;;8.20;69.25;100997.66;5099000;28;20504;-91
2024/01/05 03:59:33;;;;;;;0.10;0.10;;;;;;;8.14;69.61;101003.00;5093407;28;20027;-93
2024/01/05 04:01:59;;;;;;;0.20;0.20;;;;;;;8.12;69.91;101010.78;5094887;28;20020;-90
2024/01/05 04:04:24;;;;;;;0.20;0.20;;;;;;;8.08;68.99;101010.97;5114365;28;20031;-92
2024/01/05 04:06:51;;;;;;;0.20;0.20;;;;;;;7.88;69.94;101007.28;5097347;28;20240;-93
2024/01/05 04:09:16;;;;;;;0.20;0.20;;;;;;;7.75;69.67;101011.13;5097393;28;20027;-93
2024/01/05 04:11:42;;;;;;;0.20;0.20;;;;;;;7.76;70.20;101013.63;5097210;28;20016;-92
2024/01/05 04:14:08;;;;;;;0.20;0.20;;;;;;;7.62;70.30;101010.66;5079878;28;20121;-93
2024/01/05 04:16:33;;;;;;;0.20;0.20;;;;;;;7.53;70.55;100995.50;5096818;28;20604;-91
2024/01/05 04:18:59;;;;;;;0.13;0.13;;;;;;;7.60;70.58;101021.91;5118087;28;20081;-92
2024/01/05 04:21:25;;;;;;;0.20;0.20;;;;;;;7.60;70.86;101017.59;5120359;28;20012;-92
2024/01/05 04:23:57;;;;;;;0.20;0.20;;;;;;;7.38;70.57;100985.66;5217217;22;20041;-92
2024/01/05 04:26:22;;;;;;;0.20;0.20;;;;;;;7.29;70.51;100978.22;5030328;28;20025;-93
2024/01/05 04:28:48;;;;;;;0.17;0.17;;;;;;;7.62;70.18;101018.38;5017526;28;20117;-92
2024/01/05 04:31:14;;;;;;;0.20;0.20;;;;;;;7.79;69.71;101027.34;5054754;28;20044;-92
2024/01/05 04:33:39;;;;;;;0.20;0.20;;;;;;;7.93;69.36;101027.72;5024647;28;20042;-94
2024/01/05 04:36:05;;;;;;;0.20;0.20;;;;;;;8.14;68.50;101039.94;5003488;28;20033;-93
2024/01/05 04:38:34;;;;;;;0.20;0.20;;;;;;;8.35;67.17;101033.25;5012370;28;20040;-90
2024/01/05 04:41:01;;;;;;;0.20;0.20;;;;;;;8.47;67.13;101038.03;5579037;23;20092;-92
2024/01/05 04:43:27;;;;;;;0.20;0.20;;;;;;;8.63;66.56;101039.19;5010340;28;20038;-87
2024/01/05 04:45:52;;;;;;;0.20;0.20;;;;;;;8.57;66.53;101043.72;4976747;28;20089;-91
2024/01/05 04:48:18;;;;;;;0.20;0.20;;;;;;;8.61;66.40;101042.72;4994007;28;20038;-90
2024/01/05 04:50:44;;;;;;;0.20;0.20;;;;;;;8.70;66.07;101047.56;4993753;28;20026;-93
2024/01/05 04:53:09;;;;;;;0.20;0.20;;;;;;;8.50;66.35;101022.44;4993654;28;20038;-93
2024/01/05 04:55:35;;;;;;;0.20;0.20;;;;;;;8.78;65.67;101053.28;5010042;28;20031;-93
2024/01/05 04:58:00;;;;;;;0.20;0.20;;;;;;;8.83;65.46;101059.13;4976976;28;20037;-93
2024/01/05 05:00:26;;;;;;;0.20;0.20;;;;;;;8.88;65.10;101057.25;4976731;28;20089;-91
2024/01/05 05:02:51;;;;;;;0.20;0.20;;;;;;;8.95;65.11;101069.91;4993272;28;20076;-93
2024/01/05 05:05:17;;;;;;;0.20;0.20;;;;;;;8.88;65.16;101070.13;4958818;28;20092;-91
2024/01/05 05:07:43;;;;;;;0.20;0.20;;;;;;;8.78;64.56;101042.97;4994130;28;20027;-92
2024/01/05 05:10:08;;;;;;;0.20;0.20;;;;;;;8.89;64.30;101047.75;4976741;28;20146;-92
2024/01/05 05:12:34;;;;;;;0.20;0.20;;;;;;;9.03;64.13;101073.06;4998784;28;20030;-93
2024/01/05 05:14:59;;;;;;;0.20;0.20;;;;;;;9.09;64.10;101072.88;4997361;28;20125;-94
2024/01/05 05:17:26;;;;;;;0.20;0.20;;;;;;;9.09;64.18;101072.88;4980318;28;20050;-89
2024/01/05 05:19:54;;;;;;;0.20;0.20;;;;;;;8.88;64.29;101064.97;4992819;28;20032;-87
2024/01/05 05:22:20;;;;;;;0.20;0.20;;;;;;;9.01;64.19;101086.03;5007810;28;20030;-92
2024/01/05 05:24:46;;;;;;;0.20;0.20;;;;;;;9.02;64.03;101061.06;4993263;28;20489;-92
2024/01/05 05:27:12;;;;;;;0.20;0.20;;;;;;;9.08;64.17;101073.75;4993918;28;20109;-87
2024/01/05 05:29:37;;;;;;;0.20;0.20;;;;;;;9.03;64.19;101075.66;4991677;28;20058;-88
2024/01/05 05:32:03;;;;;;;0.20;0.20;;;;;;;8.94;64.64;101078.53;4975363;28;20057;-91
2024/01/05 05:34:28;;;;;;;0.20;0.20;;;;;;;8.97;64.52;101073.31;4992804;28;20042;-88
2024/01/05 05:36:54;;;;;;;0.20;0.20;;;;;;;8.95;64.77;101080.22;4991673;28;20114;-82
2024/01/05 05:39:20;;;;;;;0.10;0.10;;;;;;;8.95;64.24;101075.06;4991437;28;20034;-85
2024/01/05 05:41:45;;;;;;;0.20;0.20;;;;;;;8.94;64.21;101075.97;4992564;28;20073;-86
2024/01/05 05:44:11;;;;;;;0.20;0.20;;;;;;;8.84;64.66;101078.03;4974411;28;20050;-85
2024/01/05 05:46:36;;;;;;;0.20;0.20;;;;;;;8.74;65.48;101082.66;4991425;28;20022;-83
2024/01/05 05:49:02;;;;;;;0.20;0.20;;;;;;;8.63;65.73;101092.50;4992712;28;20088;-88
2024/01/05 05:51:27;;;;;;;0.20;0.20;;;;;;;8.38;66.17;101058.97;4988793;28;20077;-89
2024/01/05 05:53:53;;;;;;;0.20;0.20;;;;;;;8.37;66.81;101082.22;4990429;28;20420;-86
2024/01/05 05:56:18;;;;;;;0.10;0.10;;;;;;;8.38;66.84;101089.06;4991062;28;20101;-92
2024/01/05 05:58:44;;;;;;;0.20;0.20;;;;;;;8.38;67.06;101099.38;4992452;28;20030;-93
2024/01/05 06:01:12;;;;;;;0.20;0.20;;;;;;;8.05;66.44;101076.28;4992821;28;20101;-95
2024/01/05 06:03:39;;;;;;;0.15;0.15;;;;;;;8.17;66.73;101101.72;4994494;28;20034;-91
2024/01/05 06:06:05;;;;;;;0.20;0.20;;;;;;;8.22;66.91;101115.28;4992409;28;20045;-90
2024/01/05 06:08:30;;;;;;;0.20;0.20;;;;;;;8.16;67.03;101094.00;4974384;28;20034;-87
2024/01/05 06:10:56;;;;;;;0.20;0.20;;;;;;;8.15;66.64;101108.63;4957884;28;20061;-85
2024/01/05 06:13:21;;;;;;;0.20;0.20;;;;;;;8.11;66.85;101083.84;4990571;28;20045;-86
2024/01/05 06:15:47;;;;;;;0.20;0.20;;;;;;;8.43;66.43;101105.19;4989986;28;20026;-89
2024/01/05 06:18:13;;;;;;;0.20;0.20;;;;;;;8.53;65.61;101099.69;4970398;28;20054;-90
2024/01/05 06:20:38;;;;;;;0.20;0.20;;;;;;;8.65;64.97;101115.66;4988125;28;20042;-89
2024/01/05 06:23:04;;;;;;;0.20;0.20;;;;;;;8.65;65.00;101116.50;4981075;28;20109;-89
2024/01/05 06:25:30;;;;;;;0.20;0.20;;;;;;;8.71;65.07;101112.88;4990545;28;20062;-88
2024/01/05 06:27:55;;;;;;;0.20;0.20;;;;;;;8.74;65.14;101112.78;4988391;28;20551;-90
2024/01/05 06:30:21;;;;;;;0.20;0.20;;;;;;;8.81;64.36;101111.69;4989717;28;20038;-87
2024/01/05 06:32:46;;;;;;;0.20;0.20;;;;;;;8.82;64.19;101111.63;4990965;28;20050;-88
2024/01/05 06:35:13;;;;;;;0.20;0.20;;;;;;;8.83;64.24;101102.13;5005949;28;20050;-89
2024/01/05 06:37:38;;;;;;;0.20;0.20;;;;;;;8.81;63.92;101104.78;4989400;28;20485;-88
2024/01/05 06:40:05;;;;;;;0.20;0.20;;;;;;;8.93;63.91;101119.00;4973275;28;20117;-85
2024/01/05 06:42:31;;;;;;;0.20;0.20;;;;;;;8.83;64.17;101115.88;5004491;28;20531;-84
2024/01/05 06:44:57;;;;;;;0.20;0.20;;;;;;;8.77;63.78;101076.56;4989164;28;20124;-86
2024/01/05 06:47:23;;;;;;;0.20;0.20;;;;;;;9.08;63.29;101112.47;4991063;28;20030;-92
2024/01/05 06:49:48;;;;;;;0.20;0.20;;;;;;;9.15;63.01;101101.03;4989754;28;20368;-86
2024/01/05 06:52:14;;;;;;;0.20;0.20;;;;;;;8.95;63.63;101080.22;4989369;28;20034;-86
2024/01/05 06:54:39;;;;;;;0.20;0.20;;;;;;;8.86;63.74;101065.94;4987628;28;20034;-86
2024/01/05 06:57:07;;;;;;;0.20;0.20;;;;;;;9.03;64.32;101109.19;4990560;28;20034;-84
2024/01/05 06:59:32;;;;;;;0.20;0.20;;;;;;;9.02;64.83;101099.78;4989806;28;20121;-87
2024/01/05 07:01:58;;;;;;;0.20;0.20;;;;;;;8.97;65.12;101105.09;4989835;28;20563;-87
2024/01/05 07:04:23;;;;;;;0.20;0.20;;;;;;;9.02;65.35;101108.34;4973121;28;20549;-82
2024/01/05 07:06:49;;;;;;;0.20;0.20;;;;;;;8.99;65.50;101103.31;4989523;28;20034;-85
2024/01/05 07:09:14;;;;;;;0.20;0.20;;;;;;;8.97;65.39;101093.94;4989272;28;20030;-82
2024/01/05 07:11:40;;;;;;;0.20;0.20;;;;;;;8.98;65.40;101098.22;4989039;28;20053;-84
2024/01/05 07:14:05;;;;;;;0.20;0.20;;;;;;;8.94;65.36;101105.19;4990566;28;20033;-85
2024/01/05 07:16:31;;;;;;;0.20;0.20;;;;;;;8.81;65.58;101084.13;4989589;28;20061;-86
2024/01/05 07:18:56;;;;;;;0.20;0.20;;;;;;;8.86;65.92;101102.91;4988168;28;20057;-87
2024/01/05 07:21:22;;;;;;;0.20;0.20;;;;;;;8.89;65.93;101097.63;4972894;28;20035;-86
2024/01/05 07:23:47;;;;;;;0.20;0.20;;;;;;;8.88;66.05;101093.38;4959324;28;20065;-86
2024/01/05 07:26:13;;;;;;;0.20;0.20;;;;;;;8.86;66.16;101095.16;4988444;28;20041;-88
2024/01/05 07:28:39;;;;;;;0.20;0.20;;;;;;;9.00;65.86;101101.56;4972375;28;20035;-89
2024/01/05 07:31:05;;;;;;;0.20;0.20;;;;;;;9.05;66.04;101103.13;4988091;28;20516;-88
2024/01/05 07:33:34;;;;;;;0.20;0.20;;;;;;;9.15;65.43;101104.47;4972756;28;20038;-86
2024/01/05 07:36:06;;;;;;;0.20;0.20;;;;;;;9.36;65.37;101108.03;4974291;28;20042;-83
2024/01/05 07:38:35;;;;;;;0.20;0.20;;;;;;;9.20;65.42;101060.41;4994028;28;20031;-91
2024/01/05 07:41:01;;;;;;;0.20;0.20;;;;;;;9.45;65.44;101112.84;4975750;28;20058;-84
2024/01/05 07:43:28;;;;;;;0.20;0.20;;;;;;;9.52;65.18;101092.78;4977005;28;20022;-82
2024/01/05 07:45:54;;;;;;;0.20;0.20;;;;;;;9.63;64.83;101108.72;4992163;28;20448;-83
2024/01/05 07:48:21;;;;;;;0.20;0.20;;;;;;;9.75;65.02;101116.03;4991711;28;20137;-88
2024/01/05 07:50:47;;;;;;;0.20;0.20;;;;;;;9.65;64.50;101096.63;4991707;28;20034;-84
2024/01/05 07:53:13;;;;;;;0.20;0.20;;;;;;;9.55;64.74;101087.53;4990846;28;20515;-87
2024/01/05 07:55:38;;;;;;;0.20;0.20;;;;;;;9.73;64.70;101096.31;4977130;28;20058;-87
2024/01/05 07:58:04;;;;;;;0.20;0.20;;;;;;;9.88;64.63;101111.25;4960129;28;20057;-90
2024/01/05 08:00:31;;;;;;;0.20;0.20;;;;;;;9.90;64.60;101118.94;4992985;28;20516;-88
2024/01/05 08:02:57;;;;;;;0.20;0.20;;;;;;;9.95;64.58;101107.53;4994061;28;20026;-88
2024/01/05 08:05:23;;;;;;;0.20;0.20;;;;;;;9.97;64.72;101113.47;4992129;28;20496;-88
2024/01/05 08:07:49;;;;;;;0.20;0.20;;;;;;;10.12;64.34;101118.94;5004994;28;20061;-82
2024/01/05 08:10:15;;;;;;;0.20;0.20;;;;;;;10.24;62.97;101124.53;4989672;28;20034;-82
2024/01/05 08:12:40;;;;;;;0.20;0.20;;;;;;;10.46;62.91;101121.91;4981566;28;20095;-82
2024/01/05 08:15:06;;;;;;;0.20;0.20;;;;;;;10.56;63.37;101117.22;4993127;28;20101;-88
2024/01/05 08:17:32;;;;;;;0.20;0.20;;;;;;;10.79;61.70;101105.88;4997740;28;20107;-83
2024/01/05 08:19:58;;;;;;;0.20;0.20;;;;;;;11.05;60.97;101138.44;5004792;28;20034;-89
2024/01/05 08:22:25;;;;;;;0.20;0.20;;;;;;;10.93;60.03;101098.41;4980835;28;20056;-84
2024/01/05 08:24:51;;;;;;;0.20;0.20;;;;;;;11.34;59.63;101132.84;4993093;28;20049;-83
2024/01/05 08:27:16;;;;;;;0.20;0.20;;;;;;;11.51;58.92;101144.22;4990744;28;20416;-83
2024/01/05 08:29:42;;;;;;;0.20;0.20;;;;;;;11.49;59.82;101123.53;4976327;28;20065;-88
2024/01/05 08:32:07;;;;;;;0.20;0.20;;;;;;;11.54;59.70;101123.34;4992976;28;20440;-85
2024/01/05 08:34:33;;;;;;;0.20;0.20;;;;;;;11.64;59.02;101127.22;4991766;28;20125;-87
2024/01/05 08:36:58;;;;;;;0.20;0.20;;;;;;;11.51;58.35;101139.88;4991842;28;20413;-86
2024/01/05 08:39:24;;;;;;;0.20;0.20;;;;;;;11.41;58.56;101151.56;4993958;28;20501;-88
2024/01/05 08:41:50;;;;;;;0.20;0.20;;;;;;;11.37;58.60;101160.38;4992318;28;20097;-87
2024/01/05 08:44:15;;;;;;;0.20;0.20;;;;;;;11.41;59.14;101146.38;4952819;28;20113;-85
2024/01/05 08:46:41;;;;;;;0.20;0.20;;;;;;;11.48;59.01;101158.97;5002174;28;20105;-87
2024/01/05 08:49:07;;;;;;;0.20;0.20;;;;;;;11.42;58.84;101159.25;4971041;28;20093;-84
2024/01/05 08:51:32;;;;;;;0.20;0.20;;;;;;;11.40;58.68;101136.91;4985652;28;20470;-87
2024/01/05 08:54:01;;;;;;;0.20;0.20;;;;;;;11.51;58.69;101137.28;4983945;28;20030;-87
2024/01/05 08:56:27;;;;;;;0.20;0.20;;;;;;;11.56;59.04;101150.03;4974980;28;20038;-85
2024/01/05 08:58:52;;;;;;;0.20;0.20;;;;;;;11.61;59.28;101151.53;4990389;28;20033;-88
2024/01/05 09:01:18;;;;;;;0.20;0.20;;;;;;;11.69;58.72;101138.19;4987673;28;20041;-86
2024/01/05 09:03:43;;;;;;;0.20;0.20;;;;;;;11.68;58.63;101131.34;4992361;28;20030;-88
2024/01/05 09:06:09;;;;;;;0.20;0.20;;;;;;;11.72;58.77;101138.91;5005906;28;20037;-87
2024/01/05 09:08:35;;;;;;;0.20;0.20;;;;;;;11.80;58.87;101143.78;4992366;28;20069;-87
2024/01/05 09:11:01;;;;;;;0.20;0.20;;;;;;;11.77;59.56;101138.69;4974574;28;20053;-87
2024/01/05 09:13:27;;;;;;;0.20;0.20;;;;;;;11.71;60.31;101105.28;4981857;28;20492;-90
2024/01/05 09:15:52;;;;;;;0.20;0.20;;;;;;;12.00;60.36;101132.50;4992446;28;20058;-91
2024/01/05 09:18:18;;;;;;;0.20;0.20;;;;;;;12.06;60.02;101130.44;4991304;28;20030;-91
2024/01/05 09:20:43;;;;;;;0.20;0.20;;;;;;;11.99;59.93;101112.63;4991189;28;20030;-89
2024/01/05 09:23:09;;;;;;;0.20;0.20;;;;;;;12.03;60.99;101125.41;4987644;28;20027;-83
2024/01/05 09:25:34;;;;;;;0.20;0.20;;;;;;;11.98;61.74;101123.94;4981917;28;20041;-83
2024/01/05 09:28:01;;;;;;;0.20;0.20;;;;;;;12.03;61.46;101132.34;4990832;28;20117;-88
2024/01/05 09:30:26;;;;;;;0.20;0.20;;;;;;;12.09;61.15;101121.66;4993157;28;20054;-86
2024/01/05 09:32:52;;;;;;;0.20;0.20;;;;;;;11.99;61.93;101120.41;4987073;28;20489;-86
2024/01/05 09:35:18;;;;;;;0.20;0.20;;;;;;;12.06;60.77;101129.59;4991295;28;20042;-90
2024/01/05 09:37:43;;;;;;;0.20;0.20;;;;;;;12.02;59.46;101123.72;5007223;28;20033;-85
2024/01/05 09:40:10;;;;;;;0.20;0.20;;;;;;;11.89;59.39;101122.59;5006675;28;20061;-87
2024/01/05 09:42:38;;;;;;;0.20;0.20;;;;;;;12.98;65.06;101122.50;4981153;28;20047;-87
2024/01/05 09:45:05;;;;;;;0.20;0.20;;;;;;;12.97;58.56;101118.22;4966086;28;20041;-86
2024/01/05 09:47:31;;;;;;;0.20;0.20;;;;;;;12.61;57.05;101086.25;4987577;28;20073;-90
2024/01/05 09:49:56;;;;;;;0.20;0.20;;;;;;;12.73;58.87;101117.72;4975067;28;20113;-87
2024/01/05 09:52:22;;;;;;;0.20;0.20;;;;;;;12.51;59.40;101094.59;4987223;28;20111;-86
2024/01/05 09:54:49;;;;;;;0.20;0.20;;;;;;;12.55;59.58;101109.91;4991023;28;20640;-89
2024/01/05 09:57:17;;;;;;;0.20;0.20;;;;;;;12.72;59.45;101096.09;4990303;28;20049;-82
2024/01/05 09:59:49;;;;;;;0.20;0.20;;;;;;;12.81;59.22;101098.25;4988554;28;20045;-88
2024/01/05 10:02:23;;;;;;;0.20;0.20;;;;;;;12.84;60.31;101105.88;4975053;28;20034;-87
2024/01/05 10:04:48;;;;;;;0.20;0.20;;;;;;;12.89;59.28;101096.09;4973177;28;20113;-87
2024/01/05 10:07:15;;;;;;;0.20;0.20;;;;;;;12.97;58.02;101095.69;4989892;28;20109;-92
2024/01/05 10:09:54;;;;;;;0.20;0.20;;;;;;;12.99;58.22;101082.66;4974042;28;20459;-85
2024/01/05 10:12:19;;;;;;;0.20;0.20;;;;;;;13.04;59.29;101083.22;4990698;28;20040;-92
2024/01/05 10:14:48;;;;;;;0.20;0.20;;;;;;;13.33;59.53;101077.38;4990108;28;20034;-84
2024/01/05 10:17:15;;;;;;;0.20;0.20;;;;;;;13.29;57.68;101068.09;4987250;28;20080;-86
2024/01/05 10:19:41;;;;;;;0.20;0.20;;;;;;;13.34;59.04;101076.47;4974086;28;20124;-88
2024/01/05 10:22:13;;;;;;;0.20;0.20;;;;;;;13.28;58.52;101049.97;4988215;28;20105;-84
2024/01/05 10:24:39;;;;;;;0.20;0.20;;;;;;;13.45;58.06;101068.09;4978850;28;20030;-90
2024/01/05 10:27:11;;;;;;;0.20;0.20;;;;;;;13.61;57.74;101062.91;4981264;28;20046;-87
2024/01/05 10:29:44;;;;;;;0.20;0.20;;;;;;;13.72;56.90;101060.56;4974615;28;20030;-84
2024/01/05 10:32:11;;;;;;;0.20;0.20;;;;;;;13.85;56.42;101061.53;4988910;28;20045;-89
2024/01/05 10:34:37;;;;;;;0.20;0.20;;;;;;;13.90;54.67;101062.13;4989416;28;20091;-88
2024/01/05 10:37:06;;;;;;;0.20;0.20;;;;;;;13.97;56.25;101063.47;4974010;28;20030;-89
2024/01/05 10:39:31;;;;;;;0.20;0.20;;;;;;;13.92;57.57;101059.44;4973100;28;20518;-87
2024/01/05 10:42:24;;;;;;;0.20;0.20;;;;;;;13.98;58.14;101059.13;4968918;28;20129;-91
2024/01/05 10:44:54;;;;;;;0.20;0.20;;;;;;;14.00;58.76;101055.50;4989996;28;20057;-85
2024/01/05 10:47:20;;;;;;;0.20;0.20;;;;;;;14.06;58.70;101055.16;5009609;28;20034;-90
2024/01/05 10:49:48;;;;;;;0.20;0.20;;;;;;;14.16;58.54;101058.09;4974753;28;20022;-88
2024/01/05 10:52:15;;;;;;;0.20;0.20;;;;;;;14.35;57.83;101056.09;4986263;28;20027;-90
2024/01/05 10:54:41;;;;;;;0.20;0.20;;;;;;;14.30;57.20;101049.47;5007250;28;20026;-90
2024/01/05 10:57:08;;;;;;;0.10;0.10;;;;;;;14.31;57.21;101043.34;4992095;28;20080;-91
2024/01/05 10:59:34;;;;;;;0.20;0.20;;;;;;;14.48;57.04;101056.25;5006346;28;20042;-89
2024/01/05 11:02:00;;;;;;;0.20;0.20;;;;;;;14.62;56.52;101050.22;5005342;28;20026;-88
2024/01/05 11:04:25;;;;;;;0.20;0.20;;;;;;;14.74;56.27;101046.03;5001233;28;20030;-93
2024/01/05 11:06:51;;;;;;;0.20;0.20;;;;;;;14.83;55.68;101029.88;4973483;28;20069;-86
2024/01/05 11:09:28;;;;;;;0.20;0.20;;;;;;;14.98;54.90;101047.19;4990029;28;20026;-87
2024/01/05 11:12:09;;;;;;;0.20;0.20;;;;;;;15.11;54.95;101048.13;4994439;28;20026;-92
2024/01/05 11:14:40;;;;;;;0.20;0.20;;;;;;;15.33;55.07;101049.41;5004379;28;20034;-89
2024/01/05 11:17:17;;;;;;;0.20;0.20;;;;;;;15.34;54.56;101041.50;4989924;28;20034;-88
2024/01/05 11:20:22;;;;;;;0.20;0.20;;;;;;;15.39;53.79;101046.41;4969621;28;20516;-84
2024/01/05 11:22:49;;;;;;;0.20;0.20;;;;;;;15.33;53.07;101038.97;4972961;28;20103;-85
2024/01/05 11:25:15;;;;;;;0.20;0.20;;;;;;;15.38;52.99;101048.19;4989716;28;20070;-83
2024/01/05 11:27:45;;;;;;;0.10;0.10;;;;;;;15.38;51.91;101037.75;4989642;28;20023;-86